createdAt,value
2022-12-05T00:00:36.126Z,100903.34
2022-12-05T00:03:06.201Z,100901.66
2022-12-05T00:05:32.733Z,100903.38
2022-12-05T00:07:59.270Z,100906.84
2022-12-05T00:10:25.808Z,100901.63
2022-12-05T00:12:52.261Z,100896.44
2022-12-05T00:15:18.724Z,100906.78
2022-12-05T00:17:45.206Z,100914.44
2022-12-05T00:20:11.791Z,100904.13
2022-12-05T00:22:38.545Z,100898.06
2022-12-05T00:25:08.615Z,100910.94
2022-12-05T00:27:35.191Z,100910.94
2022-12-05T00:30:02.021Z,100904.97
2022-12-05T00:32:29.998Z,100906.66
2022-12-05T00:34:56.739Z,100914.44
2022-12-05T00:37:23.948Z,100915.28
2022-12-05T00:39:50.497Z,100910.13
2022-12-05T00:42:17.128Z,100913.56
2022-12-05T00:44:43.590Z,100908.41
2022-12-05T00:47:10.058Z,100904.13
2022-12-05T00:49:36.715Z,100898.06
2022-12-05T00:52:03.246Z,100902.41
2022-12-05T00:54:29.677Z,100908.41
2022-12-05T00:56:58.958Z,100904.94
2022-12-05T00:59:25.419Z,100898.88
2022-12-05T01:01:52.344Z,100893.75
2022-12-05T01:04:20.257Z,100898.00
2022-12-05T01:06:47.072Z,100898.91
2022-12-05T01:09:16.207Z,100886.03
2022-12-05T01:11:43.605Z,100893.84
2022-12-05T01:14:11.641Z,100898.16
2022-12-05T01:16:40.306Z,100897.22
2022-12-05T01:19:11.804Z,100902.38
2022-12-05T01:21:38.314Z,100902.44
2022-12-05T01:24:05.108Z,100900.72
2022-12-05T01:26:31.570Z,100900.72
2022-12-05T01:28:58.070Z,100903.31
2022-12-05T01:31:27.675Z,100901.63
2022-12-05T01:33:55.816Z,100896.44
2022-12-05T01:36:23.476Z,100906.78
2022-12-05T01:38:50.699Z,100911.09
2022-12-05T01:41:23.449Z,100913.66
2022-12-05T01:44:03.518Z,100902.44
2022-12-05T01:46:38.730Z,100903.34
2022-12-05T01:49:15.501Z,100906.81
2022-12-05T01:51:46.205Z,100910.25
2022-12-05T01:54:15.071Z,100919.72
2022-12-05T01:56:44.415Z,100913.72
2022-12-05T01:59:11.804Z,100915.44
2022-12-05T02:01:38.978Z,100918.00
2022-12-05T02:04:06.247Z,100917.16
2022-12-05T02:06:33.431Z,100929.22
2022-12-05T02:08:59.948Z,100920.59
2022-12-05T02:11:30.081Z,100924.09
2022-12-05T02:14:28.684Z,100926.72
2022-12-05T02:17:15.031Z,100930.19
2022-12-05T02:20:12.529Z,100929.31
2022-12-05T02:22:54.112Z,100923.28
2022-12-05T02:25:45.419Z,100916.34
2022-12-05T02:28:36.158Z,100928.44
2022-12-05T02:31:21.682Z,100918.13
2022-12-05T02:33:59.752Z,100916.41
2022-12-05T02:36:42.749Z,100914.69
2022-12-05T02:39:12.197Z,100909.44
2022-12-05T02:41:50.803Z,100914.66
2022-12-05T02:44:42.723Z,100910.34
2022-12-05T02:47:12.855Z,100908.66
2022-12-05T02:49:42.365Z,100912.97
2022-12-05T02:52:14.285Z,100915.53
2022-12-05T02:54:44.774Z,100915.53
2022-12-05T02:57:13.334Z,100924.16
2022-12-05T02:59:39.900Z,100923.28
2022-12-05T03:02:09.157Z,100923.28
2022-12-05T03:04:36.285Z,100929.34
2022-12-05T03:07:08.701Z,100925.03
2022-12-05T03:09:40.858Z,100937.09
2022-12-05T03:12:17.492Z,100941.38
2022-12-05T03:15:03.943Z,100926.75
2022-12-05T03:17:35.753Z,100930.19
2022-12-05T03:20:14.159Z,100936.19
2022-12-05T03:22:54.006Z,100941.41
2022-12-05T03:25:25.388Z,100940.50
2022-12-05T03:28:10.014Z,100946.53
2022-12-05T03:30:39.476Z,100934.53
2022-12-05T03:33:14.494Z,100939.66
2022-12-05T03:35:50.803Z,100928.47
2022-12-05T03:38:24.122Z,100933.66
2022-12-05T03:41:13.600Z,100930.19
2022-12-05T03:44:01.181Z,100931.06
2022-12-05T03:46:32.603Z,100928.47
2022-12-05T03:49:07.359Z,100930.19
2022-12-05T03:52:15.751Z,100927.63
2022-12-05T03:55:00.184Z,100932.81
2022-12-05T03:57:51.993Z,100929.34
2022-12-05T04:00:21.254Z,100929.34
2022-12-05T04:02:50.414Z,100931.06
2022-12-05T04:05:32.341Z,100943.13
2022-12-05T04:08:04.671Z,100929.34
2022-12-05T04:10:48.437Z,100935.38
2022-12-05T04:13:41.132Z,100949.16
2022-12-05T04:16:31.201Z,100943.09
2022-12-05T04:19:06.704Z,100941.38
2022-12-05T04:21:45.378Z,100949.16
2022-12-05T04:24:47.598Z,100948.31
2022-12-05T04:27:30.104Z,100950.88
2022-12-05T04:30:05.254Z,100951.72
2022-12-05T04:32:51.893Z,100951.63
2022-12-05T04:35:53.815Z,100962.81
2022-12-05T04:38:30.077Z,100955.88
2022-12-05T04:41:04.752Z,100961.78
2022-12-05T04:43:35.225Z,100960.09
2022-12-05T04:46:06.408Z,100955.81
2022-12-05T04:48:37.349Z,100965.22
2022-12-05T04:51:07.928Z,100957.50
2022-12-05T04:53:35.780Z,100963.56
2022-12-05T04:56:04.905Z,100962.66
2022-12-05T04:58:32.254Z,100957.50
2022-12-05T05:01:08.026Z,100960.06
2022-12-05T05:03:38.287Z,100959.22
2022-12-05T05:06:05.202Z,100960.84
2022-12-05T05:08:31.663Z,100957.44
2022-12-05T05:11:06.662Z,100965.25
2022-12-05T05:13:33.074Z,100960.06
2022-12-05T05:15:59.566Z,100961.66
2022-12-05T05:18:26.070Z,100968.59
2022-12-05T05:20:52.692Z,100971.94
2022-12-05T05:23:19.101Z,100972.84
2022-12-05T05:25:45.589Z,100967.66
2022-12-05T05:28:12.142Z,100974.66
2022-12-05T05:30:38.529Z,100975.50
2022-12-05T05:33:04.994Z,100973.59
2022-12-05T05:35:31.429Z,100975.38
2022-12-05T05:37:57.870Z,100985.75
2022-12-05T05:40:24.327Z,100983.25
2022-12-05T05:42:51.088Z,100984.09
2022-12-05T05:45:17.737Z,100981.53
2022-12-05T05:47:44.840Z,100988.28
2022-12-05T05:50:16.295Z,100986.44
2022-12-05T05:52:46.205Z,100975.34
2022-12-05T05:55:12.664Z,100989.13
2022-12-05T05:57:39.100Z,100985.72
2022-12-05T06:00:08.475Z,100984.88
2022-12-05T06:02:35.743Z,100988.31
2022-12-05T06:05:02.378Z,100993.50
2022-12-05T06:07:29.410Z,100995.13
2022-12-05T06:09:56.259Z,100997.75
2022-12-05T06:12:23.343Z,100999.47
2022-12-05T06:14:50.410Z,100998.59
2022-12-05T06:17:16.829Z,101002.81
2022-12-05T06:19:43.281Z,100996.75
2022-12-05T06:22:09.762Z,101000.16
2022-12-05T06:24:36.282Z,100999.16
2022-12-05T06:27:02.659Z,101009.53
2022-12-05T06:29:33.657Z,101006.16
2022-12-05T06:32:00.950Z,101005.34
2022-12-05T06:34:27.442Z,101007.00
2022-12-05T06:36:53.915Z,101007.03
2022-12-05T06:39:20.393Z,101012.19
2022-12-05T06:41:46.821Z,101015.50
2022-12-05T06:44:13.240Z,101018.97
2022-12-05T06:46:39.652Z,101018.91
2022-12-05T06:49:06.108Z,101017.16
2022-12-05T06:51:32.617Z,101023.13
2022-12-05T06:53:59.060Z,101030.09
2022-12-05T06:56:25.584Z,101031.03
2022-12-05T06:58:54.001Z,101034.50
2022-12-05T07:01:41.083Z,101033.56
2022-12-05T07:04:10.840Z,101032.56
2022-12-05T07:06:38.145Z,101031.66
2022-12-05T07:09:05.988Z,101043.75
2022-12-05T07:11:33.356Z,101037.72
2022-12-05T07:13:59.965Z,101035.09
2022-12-05T07:16:26.487Z,101040.25
2022-12-05T07:18:52.978Z,101040.91
2022-12-05T07:21:21.611Z,101049.59
2022-12-05T07:23:50.116Z,101045.97
2022-12-05T07:26:20.702Z,101056.31
2022-12-05T07:28:47.929Z,101053.50
2022-12-05T07:31:17.708Z,101055.19
2022-12-05T07:33:45.083Z,101055.94
2022-12-05T07:36:14.919Z,101055.91
2022-12-05T07:38:42.109Z,101056.88
2022-12-05T07:41:21.588Z,101060.19
2022-12-05T07:43:48.133Z,101063.75
2022-12-05T07:46:14.677Z,101061.19
2022-12-05T07:48:41.304Z,101064.47
2022-12-05T07:51:09.468Z,101063.66
2022-12-05T07:53:36.528Z,101064.59
2022-12-05T07:56:05.455Z,101068.03
2022-12-05T07:58:34.167Z,101071.53
2022-12-05T08:01:16.168Z,101065.53
2022-12-05T08:03:43.283Z,101067.84
2022-12-05T08:06:13.454Z,101078.84
2022-12-05T08:08:40.132Z,101078.84
2022-12-05T08:11:21.816Z,101082.25
2022-12-05T08:13:49.449Z,101081.44
2022-12-05T08:16:19.197Z,101084.97
2022-12-05T08:18:46.835Z,101085.94
2022-12-05T08:21:16.141Z,101085.91
2022-12-05T08:23:43.294Z,101092.81
2022-12-05T08:26:12.756Z,101097.94
2022-12-05T08:28:40.112Z,101097.09
2022-12-05T08:31:13.130Z,101104.88
2022-12-05T08:33:40.287Z,101108.38
2022-12-05T08:36:09.333Z,101106.69
2022-12-05T08:38:36.430Z,101113.53
2022-12-05T08:41:09.876Z,101113.47
2022-12-05T08:43:37.082Z,101120.38
2022-12-05T08:46:04.336Z,101122.97
2022-12-05T08:48:32.733Z,101123.00
2022-12-05T08:50:59.876Z,101121.06
2022-12-05T08:53:26.653Z,101124.53
2022-12-05T08:55:53.070Z,101121.16
2022-12-05T08:58:19.509Z,101118.66
2022-12-05T09:00:45.988Z,101119.53
2022-12-05T09:03:12.829Z,101120.56
2022-12-05T09:05:39.510Z,101121.41
2022-12-05T09:08:06.206Z,101122.25
2022-12-05T09:10:32.763Z,101130.91
2022-12-05T09:12:59.409Z,101132.47
2022-12-05T09:15:26.126Z,101132.63
2022-12-05T09:17:52.622Z,101135.03
2022-12-05T09:20:19.141Z,101138.38
2022-12-05T09:22:45.623Z,101135.66
2022-12-05T09:25:12.206Z,101145.03
2022-12-05T09:27:38.739Z,101140.84
2022-12-05T09:30:06.213Z,101144.09
2022-12-05T09:32:32.713Z,101142.47
2022-12-05T09:34:59.542Z,101145.97
2022-12-05T09:37:41.145Z,101158.06
2022-12-05T09:40:15.328Z,101146.97
2022-12-05T09:43:07.110Z,101147.06
2022-12-05T09:45:39.768Z,101147.09
2022-12-05T09:48:24.572Z,101140.16
2022-12-05T09:51:00.121Z,101151.59
2022-12-05T09:53:34.609Z,101139.78
2022-12-05T09:56:05.928Z,101145.69
2022-12-05T09:59:20.402Z,101144.00
2022-12-05T10:02:11.603Z,101144.72
2022-12-05T10:05:00.981Z,101134.50
2022-12-05T10:07:46.540Z,101137.19
2022-12-05T10:10:39.113Z,101140.00
2022-12-05T10:13:21.667Z,101135.75
2022-12-05T10:15:57.534Z,101134.13
2022-12-05T10:18:51.356Z,101137.84
2022-12-05T10:21:23.297Z,101138.78
2022-12-05T10:24:14.293Z,101135.34
2022-12-05T10:26:48.612Z,101137.19
2022-12-05T10:29:17.626Z,101133.72
2022-12-05T10:31:45.739Z,101141.56
2022-12-05T10:34:18.571Z,101144.75
2022-12-05T10:36:56.557Z,101140.56
2022-12-05T10:39:23.336Z,101141.38
2022-12-05T10:41:50.333Z,101140.56
2022-12-05T10:44:16.864Z,101136.19
2022-12-05T10:46:43.581Z,101144.13
2022-12-05T10:49:12.051Z,101145.72
2022-12-05T10:51:39.614Z,101146.66
2022-12-05T10:54:17.301Z,101149.34
2022-12-05T10:56:49.452Z,101150.25
2022-12-05T10:59:21.342Z,101147.53
2022-12-05T11:01:53.003Z,101151.94
2022-12-05T11:04:30.733Z,101145.91
2022-12-05T11:07:05.616Z,101138.16
2022-12-05T11:09:47.352Z,101143.94
2022-12-05T11:12:18.306Z,101143.94
2022-12-05T11:14:58.311Z,101143.09
2022-12-05T11:17:37.787Z,101140.50
2022-12-05T11:20:24.210Z,101138.91
2022-12-05T11:22:53.750Z,101142.41
2022-12-05T11:25:26.514Z,101142.56
2022-12-05T11:27:55.941Z,101146.66
2022-12-05T11:30:29.155Z,101143.34
2022-12-05T11:33:18.407Z,101142.63
2022-12-05T11:35:46.664Z,101140.75
2022-12-05T11:38:15.713Z,101140.13
2022-12-05T11:41:04.126Z,101129.84
2022-12-05T11:43:38.906Z,101133.38
2022-12-05T11:46:35.957Z,101137.66
2022-12-05T11:49:21.350Z,101133.47
2022-12-05T11:51:53.748Z,101133.53
2022-12-05T11:55:03.335Z,101126.53
2022-12-05T11:57:52.912Z,101128.28
2022-12-05T12:00:23.143Z,101128.28
2022-12-05T12:03:18.323Z,101134.22
2022-12-05T12:05:47.463Z,101120.53
2022-12-05T12:08:24.572Z,101123.09
2022-12-05T12:11:03.288Z,101121.38
2022-12-05T12:13:55.215Z,101122.03
2022-12-05T12:16:53.512Z,101122.94
2022-12-05T12:19:50.525Z,101131.44
2022-12-05T12:22:48.299Z,101126.44
2022-12-05T12:25:35.893Z,101129.84
2022-12-05T12:28:14.631Z,101130.78
2022-12-05T12:31:19.751Z,101131.69
2022-12-05T12:33:55.669Z,101123.59
2022-12-05T12:36:28.579Z,101130.34
2022-12-05T12:39:16.324Z,101125.25
2022-12-05T12:41:53.114Z,101123.53
2022-12-05T12:44:53.892Z,101123.69
2022-12-05T12:47:23.277Z,101125.34
2022-12-05T12:49:56.385Z,101128.63
2022-12-05T12:52:28.037Z,101129.34
2022-12-05T12:55:24.812Z,101124.88
2022-12-05T12:57:51.195Z,101123.97
2022-12-05T13:00:23.667Z,101124.09
2022-12-05T13:03:22.607Z,101130.03
2022-12-05T13:05:54.191Z,101135.28
2022-12-05T13:08:29.905Z,101126.53
2022-12-05T13:10:59.606Z,101120.59
2022-12-05T13:13:33.910Z,101131.66
2022-12-05T13:16:02.740Z,101116.06
2022-12-05T13:18:29.216Z,101118.53
2022-12-05T13:20:59.968Z,101117.47
2022-12-05T13:23:32.455Z,101117.38
2022-12-05T13:26:00.303Z,101107.19
2022-12-05T13:28:28.795Z,101112.38
2022-12-05T13:30:57.834Z,101116.66
2022-12-05T13:33:42.090Z,101120.56
2022-12-05T13:36:32.741Z,101116.97
2022-12-05T13:39:20.617Z,101115.28
2022-12-05T13:42:12.255Z,101115.28
2022-12-05T13:44:41.016Z,101119.63
2022-12-05T13:47:21.346Z,101122.28
2022-12-05T13:49:54.212Z,101128.78
2022-12-05T13:52:25.230Z,101123.88
2022-12-05T13:55:03.975Z,101132.59
2022-12-05T13:57:39.519Z,101141.25
2022-12-05T14:00:09.133Z,101138.72
2022-12-05T14:02:45.342Z,101139.56
2022-12-05T14:05:21.178Z,101136.16
2022-12-05T14:07:52.971Z,101147.31
2022-12-05T14:10:39.946Z,101136.97
2022-12-05T14:13:15.536Z,101141.19
2022-12-05T14:15:45.952Z,101146.19
2022-12-05T14:18:33.871Z,101134.13
2022-12-05T14:21:03.206Z,101135.00
2022-12-05T14:23:50.085Z,101137.44
2022-12-05T14:27:14.074Z,101139.94
2022-12-05T14:29:52.588Z,101143.22
2022-12-05T14:32:38.675Z,101150.97
2022-12-05T14:35:23.325Z,101145.84
2022-12-05T14:38:03.149Z,101150.88
2022-12-05T14:40:39.532Z,101156.69
2022-12-05T14:43:31.889Z,101158.22
2022-12-05T14:46:02.920Z,101158.81
2022-12-05T14:48:36.374Z,101162.97
2022-12-05T14:51:45.978Z,101159.75
2022-12-05T14:54:17.652Z,101164.16
2022-12-05T14:56:48.003Z,101165.00
2022-12-05T14:59:27.243Z,101165.84
2022-12-05T15:02:03.405Z,101175.88
2022-12-05T15:04:35.874Z,101168.94
2022-12-05T15:07:10.425Z,101177.56
2022-12-05T15:09:59.462Z,101178.53
2022-12-05T15:12:30.312Z,101179.41
2022-12-05T15:15:19.918Z,101181.97
2022-12-05T15:17:51.611Z,101180.28
2022-12-05T15:20:29.676Z,101181.16
2022-12-05T15:22:56.213Z,101180.25
2022-12-05T15:25:28.481Z,101187.00
2022-12-05T15:27:58.062Z,101187.75
2022-12-05T15:30:24.924Z,101188.53
2022-12-05T15:32:56.144Z,101183.44
2022-12-05T15:35:28.811Z,101179.88
2022-12-05T15:38:04.285Z,101191.03
2022-12-05T15:40:38.902Z,101188.41
2022-12-05T15:43:28.631Z,101197.13
2022-12-05T15:46:24.644Z,101195.41
2022-12-05T15:48:56.506Z,101192.78
2022-12-05T15:51:37.489Z,101196.22
2022-12-05T15:54:31.129Z,101197.03
2022-12-05T15:57:08.982Z,101200.44
2022-12-05T16:00:06.355Z,101203.75
2022-12-05T16:03:02.549Z,101201.16
2022-12-05T16:05:46.724Z,101199.38
2022-12-05T16:08:13.402Z,101208.75
2022-12-05T16:10:40.018Z,101213.06
2022-12-05T16:13:12.179Z,101213.13
2022-12-05T16:15:50.688Z,101207.16
2022-12-05T16:18:28.634Z,101213.13
2022-12-05T16:20:55.649Z,101213.16
2022-12-05T16:23:26.808Z,101208.81
2022-12-05T16:25:53.542Z,101213.16
2022-12-05T16:28:22.254Z,101218.28
2022-12-05T16:31:00.240Z,101211.41
2022-12-05T16:33:28.304Z,101204.50
2022-12-05T16:35:54.809Z,101216.50
2022-12-05T16:38:29.717Z,101224.22
2022-12-05T16:41:01.783Z,101222.47
2022-12-05T16:43:42.260Z,101221.69
2022-12-05T16:46:12.937Z,101226.78
2022-12-05T16:48:41.672Z,101231.94
2022-12-05T16:51:11.159Z,101232.78
2022-12-05T16:53:39.289Z,101232.81
2022-12-05T16:56:07.913Z,101235.38
2022-12-05T16:58:35.625Z,101232.81
2022-12-05T17:01:04.525Z,101228.53
2022-12-05T17:03:35.483Z,101231.88
2022-12-05T17:06:02.977Z,101227.66
2022-12-05T17:08:29.467Z,101229.25
2022-12-05T17:10:56.127Z,101226.69
2022-12-05T17:13:22.882Z,101234.31
2022-12-05T17:15:49.584Z,101225.75
2022-12-05T17:18:20.262Z,101232.59
2022-12-05T17:20:51.328Z,101230.91
2022-12-05T17:23:18.325Z,101230.06
2022-12-05T17:25:59.033Z,101239.56
2022-12-05T17:28:25.935Z,101231.84
2022-12-05T17:30:52.929Z,101225.06
2022-12-05T17:33:20.399Z,101224.94
2022-12-05T17:35:47.307Z,101224.97
2022-12-05T17:38:15.197Z,101223.28
2022-12-05T17:40:48.214Z,101232.78
2022-12-05T17:43:19.893Z,101232.81
2022-12-05T17:45:49.655Z,101237.09
2022-12-05T17:48:16.481Z,101241.38
2022-12-05T17:50:45.955Z,101236.16
2022-12-05T17:53:14.006Z,101237.94
2022-12-05T17:55:40.483Z,101239.72
2022-12-05T17:58:06.899Z,101232.78
2022-12-05T18:00:33.786Z,101241.44
2022-12-05T18:03:00.523Z,101232.03
2022-12-05T18:05:27.026Z,101239.75
2022-12-05T18:07:53.545Z,101243.22
2022-12-05T18:10:23.346Z,101245.81
2022-12-05T18:12:50.595Z,101245.75
2022-12-05T18:15:17.621Z,101246.53
2022-12-05T18:17:44.306Z,101244.88
2022-12-05T18:20:13.371Z,101247.41
2022-12-05T18:22:39.913Z,101246.53
2022-12-05T18:25:06.811Z,101253.44
2022-12-05T18:27:34.834Z,101244.72
2022-12-05T18:30:02.026Z,101245.59
2022-12-05T18:32:28.465Z,101246.53
2022-12-05T18:34:55.134Z,101248.13
2022-12-05T18:37:22.271Z,101249.91
2022-12-05T18:39:48.799Z,101253.41
2022-12-05T18:42:15.669Z,101250.00
2022-12-05T18:44:42.436Z,101258.63
2022-12-05T18:47:09.117Z,101257.81
2022-12-05T18:49:35.620Z,101254.34
2022-12-05T18:52:02.122Z,101263.81
2022-12-05T18:54:28.623Z,101258.66
2022-12-05T18:56:55.067Z,101263.75
2022-12-05T18:59:22.342Z,101269.78
2022-12-05T19:01:50.141Z,101265.50
2022-12-05T19:04:20.363Z,101262.91
2022-12-05T19:06:52.946Z,101269.81
2022-12-05T19:09:22.041Z,101268.03
2022-12-05T19:11:51.049Z,101264.44
2022-12-05T19:14:19.386Z,101271.34
2022-12-05T19:16:51.696Z,101271.34
2022-12-05T19:19:23.049Z,101277.31
2022-12-05T19:21:49.550Z,101280.81
2022-12-05T19:24:19.433Z,101280.84
2022-12-05T19:26:47.924Z,101282.63
2022-12-05T19:29:16.005Z,101288.59
2022-12-05T19:31:44.160Z,101286.84
2022-12-05T19:34:11.051Z,101285.94
2022-12-05T19:36:43.588Z,101283.38
2022-12-05T19:39:18.742Z,101287.63
2022-12-05T19:41:46.045Z,101287.63
2022-12-05T19:44:13.470Z,101286.75
2022-12-05T19:46:41.007Z,101287.59
2022-12-05T19:49:11.127Z,101285.00
2022-12-05T19:51:38.298Z,101283.34
2022-12-05T19:54:07.135Z,101285.88
2022-12-05T19:56:35.492Z,101282.47
2022-12-05T19:59:02.531Z,101287.66
2022-12-05T20:01:30.587Z,101285.94
2022-12-05T20:04:06.918Z,101285.13
2022-12-05T20:06:38.265Z,101286.78
2022-12-05T20:09:06.473Z,101285.09
2022-12-05T20:11:33.004Z,101283.38
2022-12-05T20:14:01.009Z,101275.66
2022-12-05T20:16:29.412Z,101280.72
2022-12-05T20:18:59.005Z,101288.53
2022-12-05T20:21:28.251Z,101281.66
2022-12-05T20:23:55.208Z,101283.34
2022-12-05T20:26:24.745Z,101281.59
2022-12-05T20:28:51.817Z,101274.72
2022-12-05T20:31:24.132Z,101276.50
2022-12-05T20:33:52.176Z,101280.81
2022-12-05T20:36:21.004Z,101285.97
2022-12-05T20:38:48.230Z,101292.94
2022-12-05T20:41:17.501Z,101292.94
2022-12-05T20:43:45.860Z,101288.59
2022-12-05T20:46:15.923Z,101285.13
2022-12-05T20:48:43.532Z,101291.16
2022-12-05T20:51:18.849Z,101285.19
2022-12-05T20:53:46.024Z,101287.78
2022-12-05T20:56:15.999Z,101284.34
2022-12-05T20:58:45.221Z,101286.91
2022-12-05T21:01:13.162Z,101280.09
2022-12-05T21:03:42.214Z,101281.00
2022-12-05T21:06:11.653Z,101283.56
2022-12-05T21:08:38.793Z,101282.75
2022-12-05T21:11:06.374Z,101280.16
2022-12-05T21:13:33.277Z,101277.59
2022-12-05T21:16:12.070Z,101275.00
2022-12-05T21:18:39.930Z,101269.78
2022-12-05T21:21:17.212Z,101268.94
2022-12-05T21:23:51.835Z,101272.31
2022-12-05T21:26:19.084Z,101273.22
2022-12-05T21:28:46.234Z,101269.81
2022-12-05T21:31:15.735Z,101267.25
2022-12-05T21:33:46.075Z,101272.41
2022-12-05T21:36:12.679Z,101269.81
2022-12-05T21:38:39.362Z,101263.81
2022-12-05T21:41:06.388Z,101261.28
2022-12-05T21:43:34.287Z,101262.97
2022-12-05T21:46:01.141Z,101268.97
2022-12-05T21:48:27.930Z,101269.84
2022-12-05T21:50:54.908Z,101269.94
2022-12-05T21:53:21.938Z,101265.56
2022-12-05T21:55:49.194Z,101266.44
2022-12-05T21:58:15.932Z,101269.94
2022-12-05T22:00:43.491Z,101266.47
2022-12-05T22:03:14.734Z,101270.84
2022-12-05T22:05:42.097Z,101269.94
2022-12-05T22:08:08.639Z,101274.28
2022-12-05T22:10:35.325Z,101269.13
2022-12-05T22:13:01.825Z,101276.78
2022-12-05T22:15:28.284Z,101274.31
2022-12-05T22:17:54.709Z,101279.44
2022-12-05T22:20:21.475Z,101268.31
2022-12-05T22:22:47.998Z,101267.44
2022-12-05T22:25:15.016Z,101278.66
2022-12-05T22:27:41.531Z,101274.38
2022-12-05T22:30:08.568Z,101273.44
2022-12-05T22:32:34.988Z,101276.06
2022-12-05T22:35:04.035Z,101273.44
2022-12-05T22:37:31.281Z,101271.75
2022-12-05T22:39:58.230Z,101268.31
2022-12-05T22:42:26.566Z,101273.53
2022-12-05T22:44:53.014Z,101270.91
2022-12-05T22:47:19.434Z,101275.19
2022-12-05T22:49:45.867Z,101271.75
2022-12-05T22:52:12.346Z,101267.44
2022-12-05T22:54:39.170Z,101267.47
2022-12-05T22:57:05.816Z,101266.59
2022-12-05T22:59:32.495Z,101264.09
2022-12-05T23:01:59.001Z,101261.50
2022-12-05T23:04:25.527Z,101258.94
2022-12-05T23:06:52.376Z,101256.41
2022-12-05T23:09:18.869Z,101260.63
2022-12-05T23:11:45.358Z,101257.25
2022-12-05T23:14:11.860Z,101254.66
2022-12-05T23:16:38.436Z,101258.94
2022-12-05T23:19:06.078Z,101252.91
2022-12-05T23:21:35.339Z,101249.53
2022-12-05T23:24:05.248Z,101254.66
2022-12-05T23:26:35.559Z,101264.97
2022-12-05T23:29:02.273Z,101258.13
2022-12-05T23:31:28.876Z,101246.09
2022-12-05T23:34:01.335Z,101249.59
2022-12-05T23:36:29.518Z,101247.06
2022-12-05T23:38:55.962Z,101241.91
2022-12-05T23:41:24.126Z,101246.25
2022-12-05T23:43:51.899Z,101241.94
2022-12-05T23:46:21.747Z,101233.34
2022-12-05T23:48:49.678Z,101233.34
2022-12-05T23:51:20.755Z,101234.25
2022-12-05T23:53:51.113Z,101239.44
2022-12-05T23:56:20.357Z,101238.59
2022-12-05T23:58:47.111Z,101249.75
